Time;durP1;ratioP1;P1;durP2;ratioP2;P2;SDS_P1;SDS_P2;PMS_P1;PMS_P2;Temp;Humidity;BMP_temperature;BMP_pressure;BME280_temperature;BME280_humidity;BME280_pressure;Samples;Min_cycle;Max_cycle;Signal;HPM_P1;HPM_P2
2022/05/31 00:01:07;;;;;;;11.10;2.17;;;22.10;99.90;;;;;;5073191;28;20041;-71
2022/05/31 00:03:34;;;;;;;15.68;2.58;;;22.20;99.90;;;;;;5072713;28;20218;-70
2022/05/31 00:06:00;;;;;;;12.30;2.20;;;22.30;99.90;;;;;;5072652;28;20095;-71
2022/05/31 00:08:27;;;;;;;17.52;2.97;;;22.30;99.20;;;;;;5072802;28;20024;-71
2022/05/31 00:10:53;;;;;;;14.38;2.60;;;22.40;96.90;;;;;;5055115;28;20021;-71
2022/05/31 00:13:19;;;;;;;15.40;3.05;;;22.50;96.20;;;;;;5072739;28;20024;-71
2022/05/31 00:15:45;;;;;;;18.67;2.25;;;22.60;94.50;;;;;;5072912;28;20028;-71
2022/05/31 00:18:13;;;;;;;17.83;2.58;;;22.80;92.70;;;;;;5072981;28;20032;-71
2022/05/31 00:20:39;;;;;;;14.27;3.03;;;22.80;91.60;;;;;;5072466;28;20107;-71
2022/05/31 00:23:08;;;;;;;15.35;2.58;;;22.80;91.10;;;;;;5072432;28;20016;-71
2022/05/31 00:25:34;;;;;;;10.30;2.58;;;23.00;90.90;;;;;;5072699;28;20082;-71
2022/05/31 00:28:00;;;;;;;17.92;2.10;;;22.90;90.00;;;;;;5072316;28;20032;-71
2022/05/31 00:30:26;;;;;;;14.50;2.58;;;22.90;88.10;;;;;;5072539;28;20388;-70
2022/05/31 00:32:53;;;;;;;13.00;2.55;;;22.90;87.30;;;;;;5072130;28;20515;-71
2022/05/31 00:35:30;;;;;;;18.23;2.50;;;22.80;85.30;;;;;;5072056;28;20029;-71
2022/05/31 00:37:58;;;;;;;12.90;2.60;;;22.90;84.50;;;;;;5072479;28;20017;-71
2022/05/31 00:40:26;;;;;;;9.20;2.30;;;23.00;83.40;;;;;;5072393;28;20099;-71
2022/05/31 00:43:05;;;;;;;15.13;3.65;;;23.00;83.10;;;;;;5072419;28;20021;-71
2022/05/31 00:45:55;;;;;;;10.77;2.20;;;23.10;81.90;;;;;;5072546;28;20078;-71
2022/05/31 00:48:45;;;;;;;13.52;2.40;;;23.10;81.70;;;;;;5053942;28;20021;-72
2022/05/31 00:51:15;;;;;;;24.95;3.13;;;23.10;81.10;;;;;;5072510;28;20028;-71
2022/05/31 00:53:47;;;;;;;15.20;2.55;;;23.20;80.80;;;;;;5071840;28;20029;-72
2022/05/31 00:56:23;;;;;;;16.75;2.72;;;23.20;80.20;;;;;;5072252;28;20032;-71
2022/05/31 00:59:29;;;;;;;17.80;2.47;;;23.20;80.00;;;;;;5072161;28;20024;-71
2022/05/31 01:01:57;;;;;;;16.98;2.65;;;23.20;79.80;;;;;;5071730;28;20305;-72
2022/05/31 01:04:38;;;;;;;19.83;2.88;;;23.20;79.10;;;;;;5072340;28;20123;-71
2022/05/31 01:07:05;;;;;;;21.27;2.90;;;23.20;79.30;;;;;;5071801;28;20028;-71
2022/05/31 01:09:32;;;;;;;17.77;2.70;;;23.40;78.50;;;;;;5071680;28;20032;-71
2022/05/31 01:11:58;;;;;;;;;;;23.50;78.70;;;;;;5072439;28;20377;-72
2022/05/31 01:14:34;;;;;;;;;;;23.50;78.00;;;;;;5071154;28;20019;-71
2022/05/31 01:17:07;;;;;;;14.18;2.50;;;23.50;78.00;;;;;;5071693;28;19911;-71
2022/05/31 01:22:18;;;;;;;13.68;2.55;;;23.40;77.70;;;;;;5071876;28;20035;-71
2022/05/31 01:24:49;;;;;;;;;;;23.30;77.30;;;;;;5072132;28;20103;-70
2022/05/31 01:27:46;;;;;;;21.65;2.70;;;23.30;77.60;;;;;;5071466;28;20283;-71
2022/05/31 01:30:16;;;;;;;10.18;2.30;;;23.30;77.10;;;;;;5071909;28;20150;-71
2022/05/31 01:33:00;;;;;;;12.32;2.40;;;23.30;77.30;;;;;;5071496;28;20028;-71
2022/05/31 01:35:34;;;;;;;8.40;1.80;;;23.30;76.90;;;;;;5071958;28;20056;-70
2022/05/31 01:38:21;;;;;;;16.38;3.22;;;23.30;76.70;;;;;;5071392;28;20118;-71
2022/05/31 01:40:53;;;;;;;14.38;2.00;;;23.20;76.80;;;;;;5071762;28;20081;-71
2022/05/31 01:43:19;;;;;;;16.85;2.88;;;23.30;76.70;;;;;;5071448;28;20029;-71
2022/05/31 01:45:57;;;;;;;8.18;1.80;;;23.20;76.80;;;;;;5071891;28;20523;-71
2022/05/31 01:48:26;;;;;;;15.95;2.25;;;23.20;76.80;;;;;;5071819;28;20056;-70
2022/05/31 01:50:52;;;;;;;9.20;1.80;;;23.10;76.50;;;;;;5071342;28;20450;-71
2022/05/31 01:53:18;;;;;;;14.07;2.25;;;23.10;76.80;;;;;;5071357;28;20081;-71
2022/05/31 01:55:48;;;;;;;16.27;2.65;;;23.00;77.00;;;;;;5071224;28;20043;-71
2022/05/31 01:58:22;;;;;;;15.70;2.50;;;23.10;76.50;;;;;;5053638;28;20024;-71
2022/05/31 02:00:49;;;;;;;13.82;2.88;;;23.10;76.50;;;;;;5071131;28;20146;-72
2022/05/31 02:03:18;;;;;;;9.30;2.35;;;23.20;75.90;;;;;;5071650;28;20036;-71
2022/05/31 02:05:46;;;;;;;23.85;2.75;;;23.20;75.50;;;;;;5071256;28;20540;-71
2022/05/31 02:08:13;;;;;;;15.40;2.35;;;23.30;75.50;;;;;;5071226;28;20028;-72
2022/05/31 02:10:41;;;;;;;15.00;2.63;;;23.30;75.00;;;;;;5071611;28;20056;-71
2022/05/31 02:13:08;;;;;;;16.67;2.67;;;23.30;75.20;;;;;;5071334;28;20025;-71
2022/05/31 02:15:34;;;;;;;14.98;2.75;;;23.40;75.10;;;;;;5071143;28;20052;-71
2022/05/31 02:18:00;;;;;;;12.55;2.53;;;23.50;74.60;;;;;;5071100;28;20097;-71
2022/05/31 02:20:26;;;;;;;14.80;2.40;;;23.50;74.20;;;;;;5071104;28;20029;-72
2022/05/31 02:22:52;;;;;;;13.38;2.42;;;23.60;73.80;;;;;;5070997;28;20020;-72
2022/05/31 02:25:46;;;;;;;15.93;2.70;;;23.60;73.80;;;;;;5071687;28;20065;-72
2022/05/31 02:28:12;;;;;;;19.17;2.67;;;23.60;73.90;;;;;;5074597;28;20024;-72
2022/05/31 02:30:38;;;;;;;15.00;2.75;;;23.50;74.30;;;;;;5074436;28;20116;-71
2022/05/31 02:33:05;;;;;;;17.52;2.97;;;23.40;74.30;;;;;;5074294;28;20480;-71
2022/05/31 02:35:31;;;;;;;12.73;2.60;;;23.40;74.60;;;;;;5056260;28;20135;-72
2022/05/31 02:37:58;;;;;;;13.38;2.63;;;23.30;74.50;;;;;;5074242;28;20012;-71
2022/05/31 02:40:24;;;;;;;16.17;3.05;;;23.20;74.70;;;;;;5074195;28;20028;-71
2022/05/31 02:42:50;;;;;;;11.13;2.78;;;23.20;74.50;;;;;;5074161;28;20027;-71
2022/05/31 02:45:16;;;;;;;14.32;2.38;;;23.20;74.10;;;;;;5074398;28;20021;-71
2022/05/31 02:47:43;;;;;;;13.30;2.72;;;23.30;74.10;;;;;;5074128;28;20441;-71
2022/05/31 02:50:09;;;;;;;19.92;3.13;;;23.40;73.90;;;;;;5074385;28;20338;-71
2022/05/31 02:52:35;;;;;;;15.50;2.95;;;23.40;73.90;;;;;;5073930;28;20028;-71
2022/05/31 02:55:03;;;;;;;15.20;2.65;;;23.50;73.40;;;;;;5074228;28;20101;-72
2022/05/31 02:57:29;;;;;;;15.75;3.95;;;23.50;74.10;;;;;;5074192;28;20430;-72
2022/05/31 02:59:55;;;;;;;17.83;3.03;;;23.60;73.00;;;;;;5074386;28;20021;-72
2022/05/31 03:02:21;;;;;;;18.05;2.88;;;23.60;72.90;;;;;;5073959;28;20040;-71
2022/05/31 03:04:47;;;;;;;15.75;2.92;;;23.60;72.70;;;;;;5074027;28;20118;-71
2022/05/31 03:07:14;;;;;;;17.27;2.80;;;23.60;72.40;;;;;;5074512;28;20468;-70
2022/05/31 03:09:40;;;;;;;12.77;2.65;;;23.60;72.40;;;;;;5074362;28;20054;-71
2022/05/31 03:12:13;;;;;;;11.88;2.47;;;23.70;71.90;;;;;;5073966;28;20384;-71
2022/05/31 03:14:44;;;;;;;20.50;3.00;;;23.90;71.30;;;;;;5074320;28;20040;-71
2022/05/31 03:17:18;;;;;;;12.55;2.70;;;24.00;70.90;;;;;;5074370;28;20090;-72
2022/05/31 03:20:08;;;;;;;21.25;3.17;;;24.00;70.80;;;;;;5074393;28;20055;-71
2022/05/31 03:22:41;;;;;;;12.68;2.67;;;24.10;70.80;;;;;;5074018;28;20033;-71
2022/05/31 03:25:18;;;;;;;14.73;2.60;;;24.10;70.80;;;;;;5074470;28;20025;-71
2022/05/31 03:27:46;;;;;;;18.42;3.03;;;24.00;71.00;;;;;;5074735;28;20036;-71
2022/05/31 03:30:13;;;;;;;15.40;2.55;;;23.80;71.50;;;;;;5074861;28;20025;-71
2022/05/31 03:32:40;;;;;;;14.13;3.28;;;23.70;71.90;;;;;;5074111;28;20082;-71
2022/05/31 03:35:08;;;;;;;14.80;3.03;;;23.50;72.50;;;;;;5074636;28;20037;-70
2022/05/31 03:37:34;;;;;;;10.68;2.25;;;23.30;72.80;;;;;;5073536;28;20082;-70
2022/05/31 03:40:00;;;;;;;23.70;2.80;;;23.10;73.10;;;;;;5074565;28;20031;-70
2022/05/31 03:42:26;;;;;;;11.05;2.42;;;23.10;73.10;;;;;;5073909;28;20461;-69
2022/05/31 03:44:53;;;;;;;17.65;2.72;;;23.10;73.10;;;;;;5074024;28;20053;-70
2022/05/31 03:47:19;;;;;;;11.65;2.78;;;23.00;73.20;;;;;;5074110;28;20093;-71
2022/05/31 03:49:45;;;;;;;16.92;2.53;;;23.00;73.50;;;;;;5074133;28;20025;-70
2022/05/31 03:52:11;;;;;;;28.08;3.45;;;22.90;73.50;;;;;;5074469;28;20024;-72
2022/05/31 03:54:38;;;;;;;17.30;2.50;;;22.90;73.30;;;;;;5073923;28;20037;-70
2022/05/31 03:57:05;;;;;;;13.70;2.67;;;23.00;73.10;;;;;;5073950;28;20028;-71
2022/05/31 03:59:36;;;;;;;20.40;2.83;;;23.00;72.80;;;;;;5073875;28;20024;-71
2022/05/31 04:02:02;;;;;;;15.35;2.67;;;23.10;72.90;;;;;;5073682;28;20513;-71
2022/05/31 04:04:28;;;;;;;17.35;2.75;;;23.10;72.80;;;;;;5073726;28;20050;-71
2022/05/31 04:06:54;;;;;;;21.10;3.15;;;23.20;72.30;;;;;;5074105;28;20039;-71
2022/05/31 04:09:20;;;;;;;15.57;2.72;;;23.50;71.80;;;;;;5074099;28;20025;-71
2022/05/31 04:11:47;;;;;;;20.17;2.50;;;23.50;71.50;;;;;;5073968;28;20040;-70
2022/05/31 04:14:13;;;;;;;;;;;23.60;71.40;;;;;;5074286;28;20101;-70
2022/05/31 04:16:39;;;;;;;18.83;2.45;;;23.70;70.70;;;;;;5073637;28;19952;-71
2022/05/31 04:19:05;;;;;;;15.85;3.15;;;23.80;70.60;;;;;;5074263;28;20027;-71
2022/05/31 04:21:31;;;;;;;15.38;2.67;;;23.90;70.40;;;;;;5074174;28;20099;-71
2022/05/31 04:24:08;;;;;;;14.85;2.72;;;23.90;70.30;;;;;;5073564;28;20030;-71
2022/05/31 04:26:42;;;;;;;13.13;2.45;;;23.90;70.00;;;;;;5055662;28;20378;-70
2022/05/31 04:29:08;;;;;;;20.52;2.65;;;24.10;69.80;;;;;;5073875;28;20119;-71
2022/05/31 04:31:34;;;;;;;11.13;2.95;;;24.20;69.40;;;;;;5073719;28;20498;-70
2022/05/31 04:34:02;;;;;;;16.55;2.85;;;24.40;69.20;;;;;;5073555;28;20115;-71
2022/05/31 04:36:28;;;;;;;14.43;2.72;;;24.40;69.30;;;;;;5073354;28;20017;-71
2022/05/31 04:38:54;;;;;;;16.63;2.83;;;24.30;69.70;;;;;;5073479;28;20123;-71
2022/05/31 04:41:24;;;;;;;18.23;2.78;;;24.10;70.40;;;;;;5073266;28;20104;-71
2022/05/31 04:43:53;;;;;;;18.45;3.00;;;23.90;70.90;;;;;;5073770;28;20029;-71
2022/05/31 04:46:21;;;;;;;15.82;3.35;;;23.90;71.20;;;;;;5073452;28;20044;-71
2022/05/31 04:48:48;;;;;;;19.58;2.92;;;23.90;70.70;;;;;;5054806;28;20031;-71
2022/05/31 04:51:14;;;;;;;19.80;3.15;;;24.00;70.60;;;;;;5055000;28;20032;-71
2022/05/31 04:53:42;;;;;;;17.83;2.92;;;24.10;70.40;;;;;;5055007;28;20473;-71
2022/05/31 04:56:11;;;;;;;20.45;3.15;;;24.30;70.40;;;;;;5073311;28;20027;-71
2022/05/31 04:58:38;;;;;;;19.95;3.15;;;24.60;69.10;;;;;;5055329;28;20048;-71
2022/05/31 05:01:07;;;;;;;;;;;25.20;68.00;;;;;;5073037;28;20059;-72
2022/05/31 05:03:35;;;;;;;16.00;3.08;;;26.20;66.70;;;;;;5073531;28;19993;-72
2022/05/31 05:06:09;;;;;;;13.98;2.80;;;27.30;64.10;;;;;;5073008;28;20028;-71
2022/05/31 05:08:37;;;;;;;16.10;3.10;;;28.60;62.70;;;;;;5072916;28;20058;-71
2022/05/31 05:11:06;;;;;;;20.52;3.20;;;29.80;60.00;;;;;;5072396;28;20027;-71
2022/05/31 05:13:33;;;;;;;15.27;2.92;;;30.80;58.40;;;;;;5054197;28;20028;-71
2022/05/31 05:16:00;;;;;;;21.15;3.03;;;30.90;57.50;;;;;;5072748;28;20024;-72
2022/05/31 05:18:27;;;;;;;25.42;3.45;;;31.20;56.90;;;;;;5073026;28;20387;-72
2022/05/31 05:20:55;;;;;;;15.65;3.10;;;31.60;56.40;;;;;;5073374;28;20104;-72
2022/05/31 05:23:21;;;;;;;18.40;2.97;;;32.30;55.00;;;;;;5073116;28;20078;-72
2022/05/31 05:25:52;;;;;;;22.35;3.03;;;32.80;54.50;;;;;;5072796;28;20025;-72
2022/05/31 05:31:04;;;;;;;23.00;2.83;;;32.60;54.60;;;;;;5072785;28;20035;-71
2022/05/31 05:33:31;;;;;;;15.25;3.35;;;32.20;54.70;;;;;;5072329;28;20067;-72
2022/05/31 05:35:57;;;;;;;22.52;3.55;;;31.30;56.10;;;;;;5072034;28;20024;-72
2022/05/31 05:38:24;;;;;;;;;;;30.60;57.20;;;;;;5072587;28;20055;-72
2022/05/31 05:40:50;;;;;;;23.80;3.13;;;30.10;57.80;;;;;;5071665;28;19904;-72
2022/05/31 05:43:16;;;;;;;;;;;29.80;58.70;;;;;;5072211;28;20013;-72
2022/05/31 05:45:43;;;;;;;16.48;2.90;;;29.70;59.10;;;;;;5071839;28;19935;-72
2022/05/31 05:48:08;;;;;;;;;;;30.10;58.70;;;;;;5071905;28;20436;-72
2022/05/31 05:50:36;;;;;;;19.33;3.42;;;30.60;57.90;;;;;;5071562;28;19908;-71
2022/05/31 05:53:07;;;;;;;19.98;3.30;;;30.20;58.10;;;;;;5052610;28;20381;-72
2022/05/31 05:55:48;;;;;;;20.77;3.45;;;30.10;58.90;;;;;;5070058;28;20128;-73
2022/05/31 05:58:14;;;;;;;25.00;3.90;;;30.60;58.60;;;;;;5070121;28;20031;-71
2022/05/31 06:00:47;;;;;;;25.58;3.83;;;31.40;57.20;;;;;;5071277;28;20021;-72
2022/05/31 06:03:29;;;;;;;27.33;3.63;;;31.50;57.00;;;;;;5073876;28;20043;-74
2022/05/31 06:05:55;;;;;;;21.75;3.85;;;32.00;56.50;;;;;;5074218;28;20020;-71
2022/05/31 06:08:23;;;;;;;;;;;32.90;55.40;;;;;;5074162;28;20126;-71
2022/05/31 06:11:12;;;;;;;18.25;3.45;;;32.70;55.30;;;;;;5073733;28;19998;-72
2022/05/31 06:14:02;;;;;;;21.92;3.70;;;33.00;55.00;;;;;;5073469;28;20076;-73
2022/05/31 06:16:31;;;;;;;23.52;3.70;;;33.70;53.70;;;;;;5074019;28;20119;-72
2022/05/31 06:19:45;;;;;;;21.35;3.72;;;34.60;53.00;;;;;;5074119;28;20396;-72
2022/05/31 06:22:11;;;;;;;22.80;3.90;;;35.00;52.30;;;;;;5054469;28;20481;-72
2022/05/31 06:24:38;;;;;;;;;;;34.90;51.70;;;;;;5074736;28;20104;-73
2022/05/31 06:27:45;;;;;;;24.63;4.15;;;34.90;52.50;;;;;;5074483;28;20261;-73
2022/05/31 06:30:11;;;;;;;21.08;3.38;;;35.20;52.80;;;;;;5074118;28;20095;-72
2022/05/31 06:32:37;;;;;;;24.65;3.60;;;36.00;50.80;;;;;;5056119;28;20479;-72
2022/05/31 06:35:04;;;;;;;21.25;3.30;;;37.10;50.30;;;;;;5074546;28;20079;-72
2022/05/31 06:37:30;;;;;;;21.65;3.33;;;37.80;49.10;;;;;;5074061;28;20017;-72
2022/05/31 06:39:57;;;;;;;19.40;3.42;;;38.60;48.20;;;;;;5055972;28;20139;-72
2022/05/31 06:42:23;;;;;;;26.88;4.18;;;38.50;47.70;;;;;;5074521;28;20492;-72
2022/05/31 06:44:50;;;;;;;20.80;3.58;;;39.00;47.70;;;;;;5074018;28;20017;-73
2022/05/31 06:47:16;;;;;;;16.80;3.60;;;39.50;46.10;;;;;;5074056;28;20029;-72
2022/05/31 06:49:42;;;;;;;24.42;3.25;;;40.30;45.70;;;;;;5074029;28;20032;-73
2022/05/31 06:57:45;;;;;;;19.00;3.75;;;42.30;41.50;;;;;;5074378;28;20111;-73
2022/05/31 07:00:15;;;;;;;21.80;3.47;;;43.50;41.60;;;;;;5074232;28;20031;-73
2022/05/31 07:02:41;;;;;;;31.52;3.55;;;44.40;39.90;;;;;;5073621;28;20097;-74
2022/05/31 07:05:07;;;;;;;21.77;3.42;;;45.00;38.80;;;;;;5073860;28;20025;-73
2022/05/31 07:07:34;;;;;;;23.80;4.00;;;45.40;38.80;;;;;;5073690;28;20020;-73
2022/05/31 07:10:00;;;;;;;25.13;3.78;;;45.60;37.70;;;;;;5073443;28;20028;-73
2022/05/31 07:12:27;;;;;;;25.20;3.63;;;45.80;37.10;;;;;;5072388;28;20107;-73
2022/05/31 07:14:53;;;;;;;23.10;3.70;;;45.80;36.50;;;;;;5055102;28;20123;-73
2022/05/31 07:17:19;;;;;;;22.35;3.72;;;45.30;36.80;;;;;;5073376;28;20036;-73
2022/05/31 07:19:48;;;;;;;23.20;3.97;;;44.40;37.20;;;;;;5073472;28;20162;-73
2022/05/31 07:22:15;;;;;;;23.60;3.53;;;43.40;37.80;;;;;;5073440;28;20180;-73
2022/05/31 07:24:41;;;;;;;26.23;3.88;;;42.70;39.50;;;;;;5073303;28;20503;-73
2022/05/31 07:27:07;;;;;;;19.42;3.13;;;41.50;39.40;;;;;;5073238;28;20043;-72
2022/05/31 07:29:33;;;;;;;26.85;4.28;;;40.50;40.00;;;;;;5073401;28;20388;-73
2022/05/31 07:32:01;;;;;;;26.13;3.95;;;39.90;41.60;;;;;;5073523;28;20032;-73
2022/05/31 07:34:27;;;;;;;20.92;3.50;;;39.60;41.90;;;;;;5073013;28;20044;-72
2022/05/31 07:36:53;;;;;;;22.70;4.03;;;39.30;42.70;;;;;;5073065;28;20033;-72
2022/05/31 07:39:20;;;;;;;23.98;4.00;;;38.90;44.20;;;;;;5073103;28;20036;-73
2022/05/31 07:41:48;;;;;;;25.25;4.30;;;38.70;45.10;;;;;;5072836;28;20036;-72
2022/05/31 07:44:15;;;;;;;32.70;5.25;;;38.70;44.20;;;;;;5073196;28;20039;-72
2022/05/31 07:46:41;;;;;;;22.50;4.43;;;38.30;45.80;;;;;;5072637;28;20024;-73
2022/05/31 07:49:08;;;;;;;23.45;4.25;;;38.20;47.00;;;;;;5072064;28;20036;-72
2022/05/31 07:51:34;;;;;;;20.35;3.53;;;38.10;49.00;;;;;;5072003;28;20390;-72
2022/05/31 07:54:00;;;;;;;24.30;4.00;;;37.80;48.70;;;;;;5072248;28;20029;-73
2022/05/31 07:56:28;;;;;;;18.42;3.47;;;37.10;49.90;;;;;;5072606;28;20024;-72
2022/05/31 07:58:54;;;;;;;17.55;3.83;;;37.10;49.80;;;;;;5054059;28;20029;-73
2022/05/31 08:01:22;;;;;;;16.85;3.65;;;36.90;49.60;;;;;;5071809;28;20063;-73
2022/05/31 08:03:49;;;;;;;24.05;3.88;;;36.60;49.80;;;;;;5071518;28;20064;-73
2022/05/31 08:06:19;;;;;;;21.85;3.63;;;36.50;50.50;;;;;;5071727;28;20029;-73
2022/05/31 08:08:46;;;;;;;17.65;3.47;;;35.90;51.20;;;;;;5054008;28;20016;-73
2022/05/31 08:11:23;;;;;;;16.90;3.53;;;35.80;51.20;;;;;;5072002;28;20025;-73
2022/05/31 08:13:49;;;;;;;26.60;7.28;;;35.60;51.40;;;;;;5071735;28;20024;-73
2022/05/31 08:16:41;;;;;;;23.55;3.97;;;35.70;52.00;;;;;;5071561;28;20115;-73
2022/05/31 08:19:08;;;;;;;18.33;3.90;;;35.50;52.10;;;;;;5072535;28;20025;-73
2022/05/31 08:21:34;;;;;;;19.75;3.90;;;35.70;52.00;;;;;;5072316;28;20390;-73
2022/05/31 08:24:03;;;;;;;26.80;4.07;;;35.80;50.50;;;;;;5071983;28;20115;-73
2022/05/31 08:26:30;;;;;;;23.45;4.43;;;35.40;51.20;;;;;;5071962;28;20515;-74
2022/05/31 08:28:56;;;;;;;19.35;4.10;;;35.60;51.40;;;;;;5072127;28;20441;-73
2022/05/31 08:31:26;;;;;;;21.15;3.92;;;35.40;50.70;;;;;;5053668;28;20028;-73
2022/05/31 08:33:53;;;;;;;17.60;3.90;;;35.20;50.90;;;;;;5072054;28;20078;-73
2022/05/31 08:36:19;;;;;;;21.50;3.85;;;34.90;50.90;;;;;;5071689;28;20027;-71
2022/05/31 08:38:46;;;;;;;22.83;4.45;;;34.50;50.60;;;;;;5071595;28;20032;-73
2022/05/31 08:41:16;;;;;;;27.95;4.43;;;34.60;51.60;;;;;;5071763;28;20098;-72
2022/05/31 08:43:48;;;;;;;20.85;3.75;;;34.90;51.80;;;;;;5053904;28;20028;-71
2022/05/31 08:46:40;;;;;;;21.90;3.92;;;35.20;50.80;;;;;;5071622;28;20340;-73
2022/05/31 08:49:17;;;;;;;23.40;4.93;;;35.40;50.10;;;;;;5071876;28;20036;-72
2022/05/31 08:52:03;;;;;;;28.52;4.70;;;35.50;50.70;;;;;;5071979;28;20042;-72
2022/05/31 08:57:56;;;;;;;29.73;4.72;;;35.70;52.50;;;;;;5072023;28;20043;-71
2022/05/31 09:00:28;;;;;;;19.45;4.18;;;35.60;52.30;;;;;;5069322;28;20047;-73
2022/05/31 09:02:55;;;;;;;21.35;4.00;;;35.30;51.70;;;;;;5071192;28;20059;-72
2022/05/31 09:06:02;;;;;;;26.02;5.05;;;35.30;52.50;;;;;;5071405;28;20028;-72
2022/05/31 09:08:40;;;;;;;25.88;4.97;;;35.30;52.00;;;;;;5071531;28;20046;-72
2022/05/31 09:11:22;;;;;;;23.98;5.00;;;35.30;52.10;;;;;;5071273;28;20020;-72
2022/05/31 09:14:26;;;;;;;22.60;4.75;;;35.30;52.50;;;;;;5071057;28;20380;-73
2022/05/31 09:17:01;;;;;;;24.77;4.82;;;35.10;52.60;;;;;;5033968;28;20044;-72
2022/05/31 09:19:43;;;;;;;25.75;4.88;;;35.10;52.90;;;;;;5053828;28;20455;-72
2022/05/31 09:22:10;;;;;;;28.25;5.20;;;35.30;52.90;;;;;;5071390;28;20040;-72
2022/05/31 09:24:44;;;;;;;22.70;4.47;;;35.00;52.90;;;;;;5071289;28;20025;-72
2022/05/31 09:27:24;;;;;;;28.85;5.00;;;34.70;52.60;;;;;;5071240;28;20114;-72
2022/05/31 09:30:03;;;;;;;24.13;3.97;;;34.80;52.90;;;;;;5071499;28;20024;-72
2022/05/31 09:32:43;;;;;;;25.88;4.15;;;35.00;53.00;;;;;;5071572;28;20028;-72
2022/05/31 09:35:25;;;;;;;28.05;5.68;;;34.90;53.00;;;;;;5071820;28;20041;-71
2022/05/31 09:38:19;;;;;;;23.77;4.82;;;34.90;53.50;;;;;;5075616;28;20058;-72
2022/05/31 09:40:49;;;;;;;26.02;4.40;;;34.60;52.40;;;;;;5075226;28;20036;-71
2022/05/31 09:43:45;;;;;;;21.08;4.30;;;34.50;52.80;;;;;;5075314;28;20046;-72
2022/05/31 09:46:42;;;;;;;29.77;4.03;;;34.60;53.50;;;;;;5075521;28;20028;-73
2022/05/31 09:49:47;;;;;;;19.45;4.10;;;34.60;54.50;;;;;;5075314;28;20062;-72
2022/05/31 09:52:20;;;;;;;23.33;3.95;;;34.60;57.30;;;;;;5073953;28;20025;-72
2022/05/31 09:58:10;;;;;;;14.35;3.28;;;34.50;60.00;;;;;;5075174;28;20206;-72
2022/05/31 10:00:56;;;;;;;23.65;3.95;;;34.50;60.80;;;;;;5056470;28;20068;-72
2022/05/31 10:03:44;;;;;;;20.58;3.35;;;34.30;60.60;;;;;;5074672;28;20112;-72
2022/05/31 10:06:26;;;;;;;24.13;4.85;;;34.10;60.50;;;;;;5074290;28;20167;-72
2022/05/31 10:08:54;;;;;;;26.58;3.88;;;34.10;60.90;;;;;;5074178;28;20029;-72
2022/05/31 10:11:44;;;;;;;17.50;3.42;;;34.00;61.10;;;;;;5074661;28;20459;-72
2022/05/31 10:14:33;;;;;;;22.40;3.17;;;33.80;61.70;;;;;;5074207;28;20111;-73
2022/05/31 10:17:28;;;;;;;20.42;3.53;;;33.80;62.10;;;;;;5074095;28;20024;-72
2022/05/31 10:20:15;;;;;;;21.50;4.07;;;33.60;62.50;;;;;;5074410;28;20112;-72
2022/05/31 10:23:11;;;;;;;24.02;3.85;;;33.50;63.30;;;;;;5056433;28;20024;-72
2022/05/31 10:25:51;;;;;;;27.35;3.40;;;33.40;64.60;;;;;;5070594;28;20395;-72
2022/05/31 10:28:31;;;;;;;15.02;2.53;;;33.30;64.10;;;;;;5074229;28;20385;-72
2022/05/31 10:31:20;;;;;;;21.42;3.45;;;33.20;64.30;;;;;;5074416;28;20042;-72
2022/05/31 10:33:55;;;;;;;18.73;2.90;;;33.30;63.80;;;;;;5074458;28;20377;-72
2022/05/31 10:36:25;;;;;;;20.17;3.30;;;32.80;64.10;;;;;;5074804;28;20016;-72
2022/05/31 10:38:52;;;;;;;21.73;4.00;;;32.30;63.50;;;;;;5074409;28;20051;-72
2022/05/31 10:41:32;;;;;;;17.80;3.30;;;32.40;64.50;;;;;;5074690;28;20066;-72
2022/05/31 10:44:22;;;;;;;21.50;4.30;;;32.50;65.40;;;;;;5055913;28;20021;-72
2022/05/31 10:47:26;;;;;;;20.55;3.47;;;32.60;65.50;;;;;;5074040;28;20102;-73
2022/05/31 10:49:52;;;;;;;27.00;4.07;;;32.70;65.10;;;;;;5074089;28;20068;-73
2022/05/31 10:52:41;;;;;;;23.15;3.50;;;32.60;65.40;;;;;;5073711;28;20509;-73
2022/05/31 10:55:34;;;;;;;23.83;3.30;;;32.90;64.90;;;;;;5073959;28;20230;-73
2022/05/31 10:58:19;;;;;;;19.20;3.60;;;32.80;64.70;;;;;;5073821;28;20558;-73
2022/05/31 11:00:58;;;;;;;18.25;3.50;;;32.90;64.50;;;;;;5072989;28;20032;-73
2022/05/31 11:03:50;;;;;;;18.27;3.17;;;33.10;63.20;;;;;;5072622;28;20029;-73
2022/05/31 11:06:47;;;;;;;24.40;3.47;;;33.00;62.10;;;;;;5073381;28;20116;-72
2022/05/31 11:12:32;;;;;;;23.80;3.42;;;33.10;63.50;;;;;;5073747;28;20507;-72
2022/05/31 11:15:34;;;;;;;19.40;3.30;;;33.00;63.00;;;;;;5073082;28;20040;-72
2022/05/31 11:18:05;;;;;;;27.05;4.35;;;33.10;62.80;;;;;;5048228;28;20479;-71
2022/05/31 11:20:50;;;;;;;22.25;3.20;;;33.40;61.30;;;;;;5073880;28;20020;-73
2022/05/31 11:23:54;;;;;;;18.05;3.00;;;33.50;61.00;;;;;;5073905;28;20028;-72
2022/05/31 11:26:58;;;;;;;27.23;3.88;;;33.70;60.60;;;;;;5074021;28;20497;-72
2022/05/31 11:29:37;;;;;;;23.03;3.03;;;33.70;61.10;;;;;;5074036;28;20036;-73
2022/05/31 11:32:34;;;;;;;25.70;3.88;;;33.60;60.00;;;;;;5073553;28;20028;-72
2022/05/31 11:35:20;;;;;;;24.55;3.35;;;33.50;61.30;;;;;;5056175;28;20032;-73
2022/05/31 11:37:51;;;;;;;18.35;2.78;;;33.60;60.40;;;;;;5073914;28;20100;-73
2022/05/31 11:40:32;;;;;;;19.63;3.58;;;33.30;60.30;;;;;;5073996;28;20048;-73
2022/05/31 11:43:19;;;;;;;23.67;3.85;;;33.30;60.00;;;;;;5073632;28;20081;-73
2022/05/31 11:46:11;;;;;;;23.58;3.45;;;33.20;61.40;;;;;;5073547;28;20384;-73
2022/05/31 11:48:40;;;;;;;18.23;3.22;;;33.10;62.30;;;;;;5073919;28;20028;-73
2022/05/31 11:51:21;;;;;;;34.63;4.22;;;33.10;63.20;;;;;;5073084;28;20162;-73
2022/05/31 11:54:05;;;;;;;18.60;3.72;;;33.30;63.30;;;;;;5073658;28;20322;-72
2022/05/31 11:57:00;;;;;;;21.17;3.53;;;33.00;66.20;;;;;;5073204;28;20411;-75
2022/05/31 11:59:37;;;;;;;19.10;3.33;;;33.20;66.20;;;;;;5054255;28;20025;-74
2022/05/31 12:02:39;;;;;;;24.38;3.40;;;33.10;66.50;;;;;;5072416;28;20048;-75
2022/05/31 12:05:25;;;;;;;24.35;3.67;;;32.90;66.70;;;;;;5073673;28;20365;-74
2022/05/31 12:08:16;;;;;;;19.20;3.50;;;32.90;64.50;;;;;;5054968;28;20036;-74
2022/05/31 12:10:47;;;;;;;21.88;2.95;;;32.80;64.00;;;;;;5073746;28;20066;-74
2022/05/31 12:13:15;;;;;;;17.13;3.38;;;32.80;65.70;;;;;;5073571;28;20442;-74
2022/05/31 12:15:43;;;;;;;16.75;3.42;;;32.90;65.50;;;;;;5073337;28;20043;-74
2022/05/31 12:18:19;;;;;;;17.20;3.45;;;33.00;64.30;;;;;;5074207;28;20024;-74
2022/05/31 12:20:45;;;;;;;16.58;3.03;;;33.00;66.00;;;;;;5055854;28;20493;-74
2022/05/31 12:23:11;;;;;;;;;;;32.90;66.70;;;;;;5074094;28;20021;-74
2022/05/31 12:25:42;;;;;;;18.73;3.67;;;32.80;66.80;;;;;;5073809;28;20352;-73
2022/05/31 12:28:32;;;;;;;18.27;2.95;;;32.40;68.80;;;;;;5073802;28;20023;-74
2022/05/31 12:31:06;;;;;;;18.85;3.28;;;32.40;68.30;;;;;;5074283;28;20044;-73
2022/05/31 12:33:40;;;;;;;17.17;2.78;;;32.40;67.60;;;;;;5073839;28;20024;-74
2022/05/31 12:36:10;;;;;;;23.00;3.95;;;32.60;68.00;;;;;;5073830;28;20484;-73
2022/05/31 12:39:00;;;;;;;18.20;2.83;;;32.40;68.40;;;;;;5073919;28;20021;-73
2022/05/31 12:41:41;;;;;;;19.27;3.50;;;32.50;68.90;;;;;;5073389;28;20036;-74
2022/05/31 12:44:11;;;;;;;18.38;2.83;;;32.60;67.10;;;;;;5073251;28;20053;-73
2022/05/31 12:46:46;;;;;;;24.83;2.83;;;32.50;68.00;;;;;;5073781;28;20063;-73
2022/05/31 12:49:33;;;;;;;18.08;3.35;;;32.70;66.70;;;;;;5055256;28;20087;-74
2022/05/31 12:54:53;;;;;;;23.77;3.75;;;32.60;68.90;;;;;;5073095;28;20492;-74
2022/05/31 13:00:49;;;;;;;20.75;3.60;;;31.90;68.80;;;;;;5073275;28;20059;-73
2022/05/31 13:03:54;;;;;;;19.77;2.97;;;31.70;69.60;;;;;;5073281;28;20051;-74
2022/05/31 13:06:38;;;;;;;26.20;3.33;;;31.70;65.80;;;;;;5066442;28;20036;-74
2022/05/31 13:09:31;;;;;;;19.17;3.15;;;31.70;66.90;;;;;;5073162;28;20086;-74
2022/05/31 13:20:40;;;;;;;13.38;3.08;;;32.50;69.50;;;;;;5073394;28;20128;-74
2022/05/31 13:23:07;;;;;;;18.25;3.10;;;32.60;69.90;;;;;;5073579;28;20025;-73
2022/05/31 13:25:50;;;;;;;13.90;2.88;;;32.60;69.70;;;;;;5073668;28;20070;-73
2022/05/31 13:28:33;;;;;;;15.65;3.08;;;32.80;69.40;;;;;;5073188;28;20086;-73
2022/05/31 13:31:18;;;;;;;20.42;3.30;;;32.70;69.40;;;;;;5073466;28;20031;-73
2022/05/31 13:33:54;;;;;;;11.25;2.92;;;32.80;69.70;;;;;;5073217;28;20024;-73
2022/05/31 13:36:27;;;;;;;18.65;3.30;;;32.60;69.90;;;;;;5073078;28;20032;-73
2022/05/31 13:38:58;;;;;;;12.80;2.50;;;32.80;69.10;;;;;;5072869;28;20522;-73
2022/05/31 13:41:25;;;;;;;14.70;3.50;;;32.80;68.70;;;;;;5073068;28;20035;-73
2022/05/31 13:43:55;;;;;;;14.63;3.00;;;32.80;68.40;;;;;;5072825;28;20051;-73
2022/05/31 13:46:32;;;;;;;16.42;3.08;;;32.90;67.80;;;;;;5073259;28;20462;-73
2022/05/31 13:49:25;;;;;;;13.68;2.60;;;32.80;67.70;;;;;;5072468;28;20105;-73